createdAt,value
2022-09-27T00:01:48.033Z,10.16
2022-09-27T00:04:14.359Z,10.13
2022-09-27T00:06:42.000Z,10.10
2022-09-27T00:09:08.340Z,10.18
2022-09-27T00:11:35.527Z,10.15
2022-09-27T00:14:02.117Z,10.11
2022-09-27T00:16:30.034Z,10.16
2022-09-27T00:18:58.331Z,10.13
2022-09-27T00:21:24.598Z,10.12
2022-09-27T00:23:52.218Z,10.13
2022-09-27T00:26:18.486Z,10.20
2022-09-27T00:28:44.787Z,10.15
2022-09-27T00:31:14.487Z,10.37
2022-09-27T00:33:40.835Z,10.18
2022-09-27T00:36:07.188Z,10.20
2022-09-27T00:38:33.474Z,10.24
2022-09-27T00:41:01.172Z,10.18
2022-09-27T00:43:42.993Z,10.14
2022-09-27T00:46:09.830Z,10.22
2022-09-27T00:48:36.823Z,10.25
2022-09-27T00:51:04.875Z,10.19
2022-09-27T00:53:32.714Z,10.14
2022-09-27T00:56:00.839Z,10.16
2022-09-27T00:58:30.067Z,10.20
2022-09-27T01:00:58.825Z,10.19
2022-09-27T01:03:30.579Z,10.25
2022-09-27T01:05:57.000Z,10.14
2022-09-27T01:08:23.307Z,10.12
2022-09-27T01:10:55.350Z,10.04
2022-09-27T01:13:26.411Z,10.10
2022-09-27T01:15:57.686Z,10.07
2022-09-27T01:18:30.294Z,10.02
2022-09-27T01:21:15.246Z,10.36
2022-09-27T01:23:53.881Z,10.33
2022-09-27T01:26:24.851Z,10.24
2022-09-27T01:28:56.292Z,10.33
2022-09-27T01:31:27.022Z,10.17
2022-09-27T01:33:58.348Z,10.21
2022-09-27T01:36:28.355Z,10.26
2022-09-27T01:39:02.044Z,10.14
2022-09-27T01:41:33.240Z,10.06
2022-09-27T01:44:02.479Z,9.89
2022-09-27T01:46:33.708Z,9.85
2022-09-27T01:49:04.114Z,9.85
2022-09-27T01:51:33.212Z,9.82
2022-09-27T01:54:02.135Z,9.81
2022-09-27T01:56:32.301Z,9.85
2022-09-27T01:59:00.506Z,9.83
2022-09-27T02:01:29.638Z,9.80
2022-09-27T02:03:57.978Z,9.81
2022-09-27T02:06:26.134Z,9.80
2022-09-27T02:08:55.038Z,9.79
2022-09-27T02:11:21.410Z,9.80
2022-09-27T02:13:49.570Z,9.75
2022-09-27T02:16:21.139Z,9.74
2022-09-27T02:18:51.678Z,9.72
2022-09-27T02:21:20.543Z,9.69
2022-09-27T02:23:48.598Z,9.69
2022-09-27T02:26:17.459Z,9.73
2022-09-27T02:28:45.782Z,9.71
2022-09-27T02:31:12.261Z,9.71
2022-09-27T02:33:42.294Z,9.71
2022-09-27T02:36:08.592Z,9.67
2022-09-27T02:38:36.286Z,9.64
2022-09-27T02:41:02.680Z,9.58
2022-09-27T02:43:30.921Z,9.59
2022-09-27T02:46:06.265Z,9.57
2022-09-27T02:48:38.907Z,9.52
2022-09-27T02:51:12.315Z,9.52
2022-09-27T02:53:45.270Z,9.50
2022-09-27T02:56:17.215Z,9.50
2022-09-27T02:58:47.958Z,9.49
2022-09-27T03:01:21.309Z,9.43
2022-09-27T03:03:52.140Z,9.42
2022-09-27T03:06:20.509Z,9.48
2022-09-27T03:08:48.308Z,9.43
2022-09-27T03:11:14.587Z,9.52
2022-09-27T03:14:06.862Z,9.47
2022-09-27T03:16:27.210Z,9.42
2022-09-27T03:18:53.498Z,9.31
2022-09-27T03:21:19.762Z,9.23
2022-09-27T03:23:46.023Z,9.20
2022-09-27T03:26:13.614Z,9.22
2022-09-27T03:28:39.900Z,9.16
2022-09-27T03:31:06.195Z,9.10
2022-09-27T03:33:32.517Z,9.06
2022-09-27T03:35:58.801Z,9.06
2022-09-27T03:38:25.089Z,9.00
2022-09-27T03:40:51.408Z,8.99
2022-09-27T03:43:19.034Z,9.03
2022-09-27T03:45:45.429Z,9.04
2022-09-27T03:48:11.789Z,9.01
2022-09-27T03:50:38.064Z,8.98
2022-09-27T03:53:04.554Z,8.98
2022-09-27T03:55:30.816Z,8.97
2022-09-27T03:57:57.099Z,9.02
2022-09-27T04:00:24.703Z,8.98
2022-09-27T04:02:51.028Z,9.02
2022-09-27T04:05:17.457Z,9.03
2022-09-27T04:07:45.964Z,9.06
2022-09-27T04:10:12.258Z,9.11
2022-09-27T04:12:39.663Z,9.07
2022-09-27T04:15:06.285Z,9.12
2022-09-27T04:17:34.600Z,9.19
2022-09-27T04:20:01.165Z,9.12
2022-09-27T04:22:27.446Z,9.22
2022-09-27T04:24:53.713Z,9.17
2022-09-27T04:27:19.978Z,9.28
2022-09-27T04:29:46.239Z,9.43
2022-09-27T04:32:12.810Z,9.31
2022-09-27T04:34:45.563Z,9.40
2022-09-27T04:37:12.407Z,9.28
2022-09-27T04:39:38.675Z,9.45
2022-09-27T04:42:05.057Z,9.76
2022-09-27T04:44:31.355Z,9.43
2022-09-27T04:46:57.675Z,9.39
2022-09-27T04:49:23.967Z,9.34
2022-09-27T04:51:51.591Z,9.33
2022-09-27T04:54:17.893Z,9.32
2022-09-27T04:56:44.162Z,9.33
2022-09-27T04:59:10.953Z,9.22
2022-09-27T05:01:37.375Z,9.20
2022-09-27T05:04:03.697Z,9.12
2022-09-27T05:06:29.969Z,9.13
2022-09-27T05:08:57.586Z,9.09
2022-09-27T05:11:23.884Z,9.13
2022-09-27T05:13:50.144Z,9.11
2022-09-27T05:16:16.454Z,9.16
2022-09-27T05:18:42.879Z,9.11
2022-09-27T05:21:09.403Z,9.10
2022-09-27T05:23:35.671Z,9.07
2022-09-27T05:26:04.832Z,9.08
2022-09-27T05:28:31.097Z,9.05
2022-09-27T05:30:57.434Z,9.07
2022-09-27T05:33:23.712Z,9.07
2022-09-27T05:35:53.764Z,9.06
2022-09-27T05:38:20.317Z,9.07
2022-09-27T05:40:46.841Z,9.06
2022-09-27T05:43:14.531Z,9.20
2022-09-27T05:45:40.976Z,9.20
2022-09-27T05:48:07.291Z,9.20
2022-09-27T05:50:33.578Z,9.13
2022-09-27T05:52:59.854Z,9.10
2022-09-27T05:55:26.116Z,9.07
2022-09-27T05:57:57.273Z,9.08
2022-09-27T06:00:25.508Z,9.07
2022-09-27T06:02:55.189Z,9.05
2022-09-27T06:05:21.930Z,9.04
2022-09-27T06:07:48.210Z,9.00
2022-09-27T06:10:14.522Z,8.97
2022-09-27T06:12:40.779Z,9.04
2022-09-27T06:15:07.383Z,9.03
2022-09-27T06:17:35.123Z,9.02
2022-09-27T06:20:01.637Z,8.98
2022-09-27T06:22:27.890Z,9.00
2022-09-27T06:24:54.151Z,9.00
2022-09-27T06:27:20.403Z,8.98
2022-09-27T06:29:46.663Z,9.00
2022-09-27T06:32:12.930Z,8.97
2022-09-27T06:34:40.534Z,8.98
2022-09-27T06:37:06.799Z,8.96
2022-09-27T06:39:33.119Z,9.03
2022-09-27T06:41:59.391Z,9.02
2022-09-27T06:44:25.915Z,9.02
2022-09-27T06:46:52.201Z,9.04
2022-09-27T06:49:18.485Z,9.08
2022-09-27T06:51:46.167Z,9.08
2022-09-27T06:54:12.447Z,9.13
2022-09-27T06:56:38.731Z,9.17
2022-09-27T06:59:04.988Z,9.23
2022-09-27T07:01:31.380Z,9.22
2022-09-27T07:03:57.739Z,9.23
2022-09-27T07:06:25.348Z,9.23
2022-09-27T07:08:53.324Z,9.26
2022-09-27T07:11:20.103Z,9.25
2022-09-27T07:13:46.380Z,9.30
2022-09-27T07:16:13.030Z,9.34
2022-09-27T07:18:39.450Z,9.33
2022-09-27T07:21:06.002Z,9.38
2022-09-27T07:23:32.267Z,9.32
2022-09-27T07:26:01.675Z,9.37
2022-09-27T07:28:27.945Z,9.39
2022-09-27T07:30:54.867Z,9.41
2022-09-27T07:33:21.136Z,9.39
2022-09-27T07:35:47.430Z,9.40
2022-09-27T07:38:13.718Z,9.43
2022-09-27T07:40:40.910Z,9.45
2022-09-27T07:43:08.952Z,9.55
2022-09-27T07:45:35.473Z,9.54
2022-09-27T07:48:03.958Z,9.61
2022-09-27T07:50:30.232Z,9.63
2022-09-27T07:52:57.312Z,9.67
2022-09-27T07:55:23.567Z,9.68
2022-09-27T07:57:50.025Z,9.73
2022-09-27T08:00:18.823Z,9.79
2022-09-27T08:02:45.431Z,9.84
2022-09-27T08:05:12.310Z,9.86
2022-09-27T08:07:38.894Z,9.94
2022-09-27T08:10:05.696Z,10.03
2022-09-27T08:12:31.987Z,10.10
2022-09-27T08:14:58.249Z,10.10
2022-09-27T08:17:25.866Z,10.15
2022-09-27T08:19:52.140Z,10.17
2022-09-27T08:22:18.397Z,10.20
2022-09-27T08:24:44.679Z,10.21
2022-09-27T08:27:12.247Z,10.19
2022-09-27T08:29:38.835Z,10.21
2022-09-27T08:32:05.135Z,10.21
2022-09-27T08:34:32.747Z,10.16
2022-09-27T08:36:59.008Z,10.16
2022-09-27T08:39:25.624Z,10.23
2022-09-27T08:41:54.592Z,10.17
2022-09-27T08:44:25.806Z,10.17
2022-09-27T08:46:57.842Z,10.12
2022-09-27T08:49:26.871Z,10.10
2022-09-27T08:51:54.995Z,10.05
2022-09-27T08:54:22.494Z,10.08
2022-09-27T08:56:48.755Z,10.06
2022-09-27T08:59:16.127Z,10.05
2022-09-27T09:01:42.890Z,10.03
2022-09-27T09:04:10.408Z,10.07
2022-09-27T09:06:40.462Z,10.06
2022-09-27T09:09:16.027Z,10.07
2022-09-27T09:11:49.499Z,10.07
2022-09-27T09:14:33.393Z,10.08
2022-09-27T09:17:03.890Z,10.12
2022-09-27T09:19:40.888Z,10.16
2022-09-27T09:22:13.979Z,10.19
2022-09-27T09:24:47.823Z,10.25
2022-09-27T09:27:18.521Z,10.31
2022-09-27T09:30:03.086Z,10.37
2022-09-27T09:32:34.224Z,10.40
2022-09-27T09:35:02.339Z,10.44
2022-09-27T09:37:34.987Z,10.49
2022-09-27T09:40:08.952Z,10.53
2022-09-27T09:42:38.838Z,10.58
2022-09-27T09:45:07.353Z,10.62
2022-09-27T09:47:36.719Z,10.69
2022-09-27T09:50:03.999Z,10.73
2022-09-27T09:52:36.469Z,10.79
2022-09-27T09:55:07.194Z,10.83
2022-09-27T09:57:36.346Z,10.88
2022-09-27T10:00:06.820Z,10.94
2022-09-27T10:02:34.881Z,10.82
2022-09-27T10:05:07.482Z,10.79
2022-09-27T10:07:36.582Z,10.78
2022-09-27T10:10:05.822Z,10.75
2022-09-27T10:12:32.119Z,10.81
2022-09-27T10:15:00.801Z,10.86
2022-09-27T10:17:28.355Z,10.93
2022-09-27T10:19:56.330Z,10.88
2022-09-27T10:22:24.421Z,10.90
2022-09-27T10:24:54.843Z,10.93
2022-09-27T10:27:22.751Z,10.98
2022-09-27T10:29:55.842Z,11.09
2022-09-27T10:32:24.531Z,11.04
2022-09-27T10:34:50.807Z,11.04
2022-09-27T10:37:18.611Z,11.10
2022-09-27T10:39:45.975Z,11.12
2022-09-27T10:42:20.487Z,11.15
2022-09-27T10:44:48.365Z,11.16
2022-09-27T10:47:17.767Z,11.49
2022-09-27T10:49:44.140Z,11.30
2022-09-27T10:52:14.868Z,11.10
2022-09-27T10:54:42.299Z,11.53
2022-09-27T10:57:16.307Z,11.40
2022-09-27T10:59:43.570Z,11.02
2022-09-27T11:02:19.457Z,11.11
2022-09-27T11:05:02.039Z,11.53
2022-09-27T11:07:28.351Z,11.40
2022-09-27T11:09:55.931Z,11.54
2022-09-27T11:12:22.568Z,11.24
2022-09-27T11:14:51.792Z,11.33
2022-09-27T11:17:26.078Z,11.22
2022-09-27T11:19:56.723Z,11.12
2022-09-27T11:22:41.006Z,11.18
2022-09-27T11:25:14.604Z,11.21
2022-09-27T11:27:47.410Z,11.31
2022-09-27T11:30:14.928Z,11.19
2022-09-27T11:32:51.592Z,11.14
2022-09-27T11:35:35.571Z,10.87
2022-09-27T11:38:09.837Z,10.76
2022-09-27T11:40:43.224Z,10.67
2022-09-27T11:43:19.775Z,10.65
2022-09-27T11:46:15.442Z,10.58
2022-09-27T11:48:51.047Z,10.62
2022-09-27T11:51:29.712Z,10.64
2022-09-27T11:54:05.636Z,10.69
2022-09-27T11:56:37.888Z,10.67
2022-09-27T11:59:12.330Z,10.67
2022-09-27T12:01:43.184Z,10.73
2022-09-27T12:04:21.352Z,10.87
2022-09-27T12:06:51.061Z,10.86
2022-09-27T12:09:20.269Z,10.80
2022-09-27T12:11:49.556Z,10.86
2022-09-27T12:14:18.723Z,11.01
2022-09-27T12:16:46.003Z,11.07
2022-09-27T12:19:16.983Z,11.23
2022-09-27T12:21:45.018Z,11.05
2022-09-27T12:24:16.715Z,11.07
2022-09-27T12:26:43.898Z,11.16
2022-09-27T12:29:13.336Z,11.24
2022-09-27T12:31:43.075Z,11.32
2022-09-27T12:37:04.368Z,11.47
2022-09-27T12:39:37.551Z,11.50
2022-09-27T12:42:07.540Z,11.54
2022-09-27T12:44:37.260Z,11.63
2022-09-27T12:47:07.311Z,11.70
2022-09-27T12:49:39.806Z,11.75
2022-09-27T12:52:11.658Z,11.79
2022-09-27T12:54:47.819Z,11.83
2022-09-27T12:57:21.958Z,11.91
2022-09-27T13:00:02.861Z,11.93
2022-09-27T13:03:11.045Z,11.98
2022-09-27T13:05:40.128Z,12.01
2022-09-27T13:08:18.944Z,12.09
2022-09-27T13:10:50.519Z,12.17
2022-09-27T13:13:19.195Z,12.23
2022-09-27T13:15:45.740Z,11.98
2022-09-27T13:18:26.928Z,12.00
2022-09-27T13:20:53.358Z,11.90
2022-09-27T13:23:38.469Z,11.66
2022-09-27T13:26:20.741Z,11.64
2022-09-27T13:28:57.869Z,11.57
2022-09-27T13:31:57.632Z,11.58
2022-09-27T13:34:37.694Z,11.57
2022-09-27T13:37:18.874Z,11.61
2022-09-27T13:39:45.144Z,11.63
2022-09-27T13:42:17.700Z,11.62
2022-09-27T13:44:49.546Z,11.58
2022-09-27T13:47:21.943Z,11.52
2022-09-27T13:49:49.929Z,11.47
2022-09-27T13:52:19.379Z,11.41
2022-09-27T13:54:50.611Z,11.29
2022-09-27T13:57:37.827Z,11.22
2022-09-27T14:00:06.505Z,11.15
2022-09-27T14:02:38.037Z,11.06
2022-09-27T14:05:09.353Z,11.01
2022-09-27T14:07:36.910Z,10.97
2022-09-27T14:10:03.530Z,10.95
2022-09-27T14:12:32.208Z,10.95
2022-09-27T14:14:59.107Z,10.93
2022-09-27T14:17:26.832Z,10.93
2022-09-27T14:19:53.107Z,10.94
2022-09-27T14:22:20.411Z,10.97
2022-09-27T14:24:48.182Z,10.97
2022-09-27T14:27:15.752Z,10.99
2022-09-27T14:29:43.080Z,11.06
2022-09-27T14:32:10.791Z,11.12
2022-09-27T14:34:38.618Z,11.14
2022-09-27T14:37:05.042Z,11.18
2022-09-27T14:39:32.395Z,11.19
2022-09-27T14:41:58.994Z,11.24
2022-09-27T14:44:28.240Z,11.27
2022-09-27T14:47:08.160Z,11.29
2022-09-27T14:49:34.429Z,11.33
2022-09-27T14:52:02.102Z,11.36
2022-09-27T14:54:29.427Z,11.28
2022-09-27T14:56:56.934Z,11.26
2022-09-27T14:59:24.451Z,11.25
2022-09-27T15:01:51.539Z,11.23
2022-09-27T15:04:19.126Z,11.16
2022-09-27T15:06:45.765Z,11.14
2022-09-27T15:09:14.779Z,11.10
2022-09-27T15:11:41.630Z,11.06
2022-09-27T15:14:12.052Z,11.03
2022-09-27T15:16:38.737Z,11.06
2022-09-27T15:19:06.643Z,11.06
2022-09-27T15:21:33.905Z,11.08
2022-09-27T15:24:00.370Z,11.07
2022-09-27T15:26:35.035Z,11.05
2022-09-27T15:30:18.590Z,11.02
2022-09-27T15:32:48.816Z,10.99
2022-09-27T15:35:22.748Z,10.97
2022-09-27T15:37:49.392Z,10.93
2022-09-27T15:40:30.591Z,10.93
2022-09-27T15:42:57.620Z,10.92
2022-09-27T15:45:29.161Z,10.92
2022-09-27T15:47:55.439Z,10.91
2022-09-27T15:50:34.927Z,10.90
2022-09-27T15:53:01.679Z,10.88
2022-09-27T15:55:29.181Z,10.87
2022-09-27T15:57:56.618Z,10.88
2022-09-27T16:00:23.038Z,10.88
2022-09-27T16:02:50.716Z,10.83
2022-09-27T16:05:16.979Z,10.82
2022-09-27T16:07:43.262Z,10.82
2022-09-27T16:10:12.935Z,10.76
2022-09-27T16:12:39.214Z,10.75
2022-09-27T16:15:06.111Z,10.67
2022-09-27T16:17:32.377Z,10.61
2022-09-27T16:20:00.130Z,10.60
2022-09-27T16:22:26.403Z,10.60
2022-09-27T16:24:52.674Z,10.50
2022-09-27T16:27:22.103Z,10.44
2022-09-27T16:29:48.351Z,10.39
2022-09-27T16:32:14.625Z,10.38
2022-09-27T16:34:40.928Z,10.36
2022-09-27T16:37:08.585Z,10.36
2022-09-27T16:39:34.842Z,10.34
2022-09-27T16:42:01.102Z,10.30
2022-09-27T16:44:27.507Z,10.28
2022-09-27T16:46:53.843Z,10.24
2022-09-27T16:49:20.158Z,10.21
2022-09-27T16:51:46.440Z,10.20
2022-09-27T16:54:14.142Z,10.18
2022-09-27T16:56:40.446Z,10.18
2022-09-27T16:59:06.730Z,10.16
2022-09-27T17:01:33.599Z,10.15
2022-09-27T17:03:59.973Z,10.12
2022-09-27T17:06:26.694Z,10.13
2022-09-27T17:08:52.952Z,10.12
2022-09-27T17:11:20.668Z,10.10
2022-09-27T17:13:47.323Z,10.06
2022-09-27T17:16:13.663Z,10.07
2022-09-27T17:18:40.006Z,10.06
2022-09-27T17:21:07.119Z,10.04
2022-09-27T17:23:33.905Z,9.99
2022-09-27T17:26:07.422Z,9.97
2022-09-27T17:28:35.718Z,9.97
2022-09-27T17:31:05.897Z,9.95
2022-09-27T17:33:32.198Z,9.96
2022-09-27T17:35:59.134Z,9.94
2022-09-27T17:38:25.451Z,9.89
2022-09-27T17:40:59.147Z,9.88
2022-09-27T17:43:25.443Z,9.90
2022-09-27T17:45:53.043Z,10.07
2022-09-27T17:48:19.308Z,9.93
2022-09-27T17:50:45.763Z,9.88
2022-09-27T17:53:12.029Z,10.15
2022-09-27T17:55:38.330Z,10.20
2022-09-27T17:58:04.599Z,9.92
2022-09-27T18:00:30.882Z,9.81
2022-09-27T18:02:58.528Z,9.77
2022-09-27T18:05:24.851Z,9.84
2022-09-27T18:07:51.131Z,9.92
2022-09-27T18:10:17.410Z,9.89
2022-09-27T18:12:43.662Z,9.85
2022-09-27T18:15:09.992Z,9.84
2022-09-27T18:17:36.277Z,9.99
2022-09-27T18:20:04.028Z,9.95
2022-09-27T18:22:30.311Z,9.88
2022-09-27T18:24:56.612Z,9.59
2022-09-27T18:27:22.893Z,9.44
2022-09-27T18:29:49.160Z,9.39
2022-09-27T18:32:15.390Z,9.33
2022-09-27T18:34:41.634Z,9.30
2022-09-27T18:37:09.245Z,9.29
2022-09-27T18:39:35.530Z,9.24
2022-09-27T18:42:01.783Z,9.19
2022-09-27T18:44:28.146Z,9.16
2022-09-27T18:46:54.496Z,9.17
2022-09-27T18:49:25.633Z,9.16
2022-09-27T18:51:53.229Z,9.16
2022-09-27T18:54:21.909Z,9.14
2022-09-27T18:56:49.030Z,9.13
2022-09-27T18:59:15.397Z,9.11
2022-09-27T19:01:42.320Z,9.10
2022-09-27T19:04:09.410Z,9.08
2022-09-27T19:06:36.410Z,9.08
2022-09-27T19:09:03.165Z,9.07
2022-09-27T19:11:31.259Z,9.08
2022-09-27T19:13:57.967Z,9.06
2022-09-27T19:16:25.153Z,9.02
2022-09-27T19:18:51.961Z,9.02
2022-09-27T19:21:19.567Z,9.02
2022-09-27T19:23:45.899Z,9.05
2022-09-27T19:26:13.693Z,9.03
2022-09-27T19:28:42.539Z,8.96
2022-09-27T19:31:09.712Z,8.98
2022-09-27T19:33:36.620Z,8.99
2022-09-27T19:36:03.575Z,9.01
2022-09-27T19:38:30.132Z,9.01
2022-09-27T19:40:56.485Z,9.02
2022-09-27T19:43:23.068Z,9.03
2022-09-27T19:45:50.668Z,9.04
2022-09-27T19:48:16.951Z,9.03
2022-09-27T19:50:43.230Z,9.03
2022-09-27T19:53:09.543Z,9.02
2022-09-27T19:55:35.896Z,8.97
2022-09-27T19:58:02.168Z,8.94
2022-09-27T20:00:28.447Z,8.94
2022-09-27T20:02:56.088Z,8.95
2022-09-27T20:05:22.382Z,8.95
2022-09-27T20:07:48.642Z,8.93
2022-09-27T20:10:14.896Z,8.91
2022-09-27T20:12:41.168Z,8.87
2022-09-27T20:15:07.754Z,8.86
2022-09-27T20:17:34.015Z,8.86
2022-09-27T20:20:01.670Z,8.87
2022-09-27T20:22:27.928Z,8.86
2022-09-27T20:24:54.194Z,8.85
2022-09-27T20:27:20.445Z,8.84
2022-09-27T20:29:46.702Z,8.84
2022-09-27T20:32:27.442Z,8.84
2022-09-27T20:34:54.531Z,8.82
2022-09-27T20:37:22.194Z,8.81
2022-09-27T20:39:48.460Z,8.83
2022-09-27T20:42:14.733Z,8.81
2022-09-27T20:44:40.987Z,8.79
2022-09-27T20:47:07.283Z,8.76
2022-09-27T20:49:33.594Z,8.74
2022-09-27T20:51:59.842Z,8.70
2022-09-27T20:54:27.445Z,8.70
2022-09-27T20:56:53.703Z,8.68
2022-09-27T20:59:20.915Z,8.69
2022-09-27T21:01:48.462Z,8.72
2022-09-27T21:04:15.646Z,8.72
2022-09-27T21:06:42.520Z,8.72
2022-09-27T21:09:09.933Z,8.72
2022-09-27T21:11:37.568Z,8.73
2022-09-27T21:14:03.840Z,8.72
2022-09-27T21:16:33.580Z,8.69
2022-09-27T21:18:59.907Z,8.66
2022-09-27T21:21:26.587Z,8.61
2022-09-27T21:23:53.852Z,8.57
2022-09-27T21:26:20.747Z,8.56
2022-09-27T21:28:49.336Z,8.53
2022-09-27T21:31:21.671Z,8.49
2022-09-27T21:33:49.858Z,8.44
2022-09-27T21:36:16.174Z,8.41
2022-09-27T21:38:42.946Z,8.39
2022-09-27T21:41:10.445Z,8.38
2022-09-27T21:43:37.662Z,8.37
2022-09-27T21:46:06.047Z,8.38
2022-09-27T21:48:32.910Z,8.38
2022-09-27T21:51:02.959Z,8.35
2022-09-27T21:53:29.278Z,8.38
2022-09-27T21:55:55.790Z,8.36
2022-09-27T21:58:22.127Z,8.38
2022-09-27T22:00:48.573Z,8.37
2022-09-27T22:03:16.195Z,8.37
2022-09-27T22:05:45.558Z,8.37
2022-09-27T22:08:11.803Z,8.36
2022-09-27T22:10:38.165Z,8.34
2022-09-27T22:13:04.469Z,8.33
2022-09-27T22:15:30.798Z,8.31
2022-09-27T22:17:57.065Z,8.29
2022-09-27T22:20:24.684Z,8.28
2022-09-27T22:22:50.931Z,8.28
2022-09-27T22:25:17.209Z,8.26
2022-09-27T22:27:43.474Z,8.23
2022-09-27T22:30:10.179Z,8.19
2022-09-27T22:32:36.435Z,8.16
2022-09-27T22:35:02.699Z,8.14
2022-09-27T22:37:30.344Z,8.11
2022-09-27T22:39:56.594Z,8.09
2022-09-27T22:42:22.847Z,8.04
2022-09-27T22:44:49.114Z,8.02
2022-09-27T22:47:15.378Z,8.00
2022-09-27T22:49:41.655Z,8.00
2022-09-27T22:52:08.020Z,7.97
2022-09-27T22:54:35.624Z,7.93
2022-09-27T22:57:01.889Z,7.90
2022-09-27T22:59:28.157Z,7.91
2022-09-27T23:01:54.642Z,7.93
2022-09-27T23:04:21.194Z,7.95
2022-09-27T23:06:49.038Z,7.96
2022-09-27T23:09:15.440Z,7.97
2022-09-27T23:11:43.117Z,7.99
2022-09-27T23:14:11.043Z,8.00
2022-09-27T23:16:37.711Z,8.00
2022-09-27T23:19:04.476Z,8.01
2022-09-27T23:21:30.762Z,8.02
2022-09-27T23:23:57.610Z,8.02
2022-09-27T23:26:24.696Z,8.04
2022-09-27T23:28:53.121Z,8.07
2022-09-27T23:31:19.657Z,8.07
2022-09-27T23:33:46.429Z,8.06
2022-09-27T23:36:13.484Z,8.08
2022-09-27T23:38:39.743Z,8.07
2022-09-27T23:41:06.052Z,8.07
2022-09-27T23:43:32.316Z,8.09
2022-09-27T23:45:59.919Z,8.09
2022-09-27T23:48:26.405Z,8.11
2022-09-27T23:50:52.680Z,8.08
2022-09-27T23:53:19.314Z,8.10
2022-09-27T23:55:45.594Z,8.09
2022-09-27T23:58:11.907Z,8.08
